createdAt,value
2019-01-29T00:00:53.970Z,77.85
2019-01-29T00:03:25.525Z,77.55
2019-01-29T00:05:56.598Z,77.83
2019-01-29T00:08:27.739Z,77.28
2019-01-29T00:10:59.083Z,77.21
2019-01-29T00:13:30.225Z,77.18
2019-01-29T00:16:02.448Z,76.09
2019-01-29T00:18:34.582Z,76.13
2019-01-29T00:21:05.668Z,76.00
2019-01-29T00:23:37.062Z,75.29
2019-01-29T00:26:08.344Z,73.99
2019-01-29T00:28:39.467Z,74.37
2019-01-29T00:31:10.620Z,74.44
2019-01-29T00:33:41.985Z,73.81
2019-01-29T00:36:12.996Z,72.52
2019-01-29T00:38:44.205Z,72.29
2019-01-29T00:41:15.353Z,71.63
2019-01-29T00:43:46.572Z,71.84
2019-01-29T00:46:17.602Z,71.37
2019-01-29T00:48:48.654Z,71.03
2019-01-29T00:51:19.749Z,71.44
2019-01-29T00:53:50.834Z,70.78
2019-01-29T00:56:21.977Z,70.94
2019-01-29T00:58:54.107Z,70.36
2019-01-29T01:01:25.316Z,70.46
2019-01-29T01:03:56.368Z,70.62
2019-01-29T01:06:27.437Z,70.17
2019-01-29T01:08:58.542Z,70.83
2019-01-29T01:11:29.775Z,71.02
2019-01-29T01:14:01.909Z,70.49
2019-01-29T01:16:33.254Z,70.46
2019-01-29T01:19:04.483Z,70.16
2019-01-29T01:21:35.668Z,70.20
2019-01-29T01:24:06.835Z,70.07
2019-01-29T01:26:37.983Z,70.54
2019-01-29T01:29:09.036Z,69.87
2019-01-29T01:31:40.115Z,70.15
2019-01-29T01:34:11.120Z,70.18
2019-01-29T01:36:42.282Z,70.28
2019-01-29T01:39:13.463Z,70.32
2019-01-29T01:41:46.307Z,70.30
2019-01-29T01:44:17.361Z,70.40
2019-01-29T01:46:48.426Z,70.60
2019-01-29T01:49:19.544Z,70.15
2019-01-29T01:51:50.698Z,70.58
2019-01-29T01:54:21.820Z,70.47
2019-01-29T01:56:52.883Z,70.45
2019-01-29T01:59:23.855Z,70.48
2019-01-29T02:01:54.950Z,70.90
2019-01-29T02:04:26.060Z,70.70
2019-01-29T02:06:57.131Z,70.35
2019-01-29T02:09:28.476Z,70.51
2019-01-29T02:11:59.796Z,70.34
2019-01-29T02:14:30.989Z,70.23
2019-01-29T02:17:02.264Z,70.39
2019-01-29T02:19:33.467Z,70.33
2019-01-29T02:22:05.134Z,69.97
2019-01-29T02:24:36.301Z,70.20
2019-01-29T02:27:07.400Z,69.97
2019-01-29T02:29:38.528Z,69.82
2019-01-29T02:32:09.619Z,70.48
2019-01-29T02:34:40.783Z,70.28
2019-01-29T02:37:11.978Z,70.33
2019-01-29T02:39:42.973Z,70.39
2019-01-29T02:42:14.062Z,70.32
2019-01-29T02:44:46.266Z,70.10
2019-01-29T02:47:17.296Z,69.86
2019-01-29T02:49:48.576Z,69.92
2019-01-29T02:52:19.760Z,70.20
2019-01-29T02:54:50.853Z,70.10
2019-01-29T02:57:21.995Z,70.17
2019-01-29T02:59:53.039Z,69.52
2019-01-29T03:02:24.189Z,69.95
2019-01-29T03:04:55.315Z,70.20
2019-01-29T03:07:26.464Z,69.53
2019-01-29T03:09:58.839Z,70.19
2019-01-29T03:12:30.252Z,70.27
2019-01-29T03:15:01.284Z,70.40
2019-01-29T03:17:32.415Z,70.51
2019-01-29T03:20:04.587Z,70.08
2019-01-29T03:22:35.801Z,70.43
2019-01-29T03:25:08.096Z,70.50
2019-01-29T03:27:39.627Z,70.16
2019-01-29T03:30:13.231Z,70.24
2019-01-29T03:32:44.598Z,70.50
2019-01-29T03:35:15.858Z,70.89
2019-01-29T03:37:47.089Z,70.72
2019-01-29T03:40:21.178Z,70.57
2019-01-29T03:42:52.336Z,70.90
2019-01-29T03:45:24.484Z,71.01
2019-01-29T03:47:56.720Z,71.17
2019-01-29T03:50:29.211Z,70.81
2019-01-29T03:53:00.508Z,70.19
2019-01-29T03:55:31.714Z,70.50
2019-01-29T03:58:02.878Z,70.70
2019-01-29T04:00:34.012Z,70.71
2019-01-29T04:03:05.353Z,71.13
2019-01-29T04:05:36.419Z,71.01
2019-01-29T04:08:07.655Z,70.65
2019-01-29T04:10:38.765Z,70.77
2019-01-29T04:13:09.926Z,70.37
2019-01-29T04:15:41.043Z,70.98
2019-01-29T04:18:12.177Z,71.29
2019-01-29T04:20:43.340Z,71.43
2019-01-29T04:23:14.506Z,71.26
2019-01-29T04:25:45.656Z,71.23
2019-01-29T04:28:16.734Z,71.63
2019-01-29T04:30:47.880Z,71.79
2019-01-29T04:33:18.970Z,71.85
2019-01-29T04:35:50.025Z,71.99
2019-01-29T04:38:21.190Z,72.02
2019-01-29T04:40:52.221Z,72.38
2019-01-29T04:43:24.407Z,72.65
2019-01-29T04:45:55.574Z,72.61
2019-01-29T04:48:26.833Z,72.83
2019-01-29T04:50:57.996Z,72.77
2019-01-29T04:53:29.219Z,73.04
2019-01-29T04:56:01.229Z,73.16
2019-01-29T04:58:32.312Z,73.40
2019-01-29T05:01:03.448Z,73.48
2019-01-29T05:03:34.514Z,73.22
2019-01-29T05:06:05.866Z,73.31
2019-01-29T05:08:36.961Z,72.89
2019-01-29T05:11:08.017Z,73.08
2019-01-29T05:13:39.357Z,73.28
2019-01-29T05:16:10.523Z,73.35
2019-01-29T05:18:41.842Z,73.28
2019-01-29T05:21:13.055Z,72.87
2019-01-29T05:23:44.339Z,73.41
2019-01-29T05:26:15.520Z,73.53
2019-01-29T05:28:46.806Z,73.79
2019-01-29T05:31:17.970Z,73.64
2019-01-29T05:33:49.173Z,73.48
2019-01-29T05:36:20.246Z,73.44
2019-01-29T05:38:51.341Z,73.49
2019-01-29T05:41:22.476Z,73.80
2019-01-29T05:43:53.503Z,73.82
2019-01-29T05:46:25.283Z,73.81
2019-01-29T05:48:56.585Z,73.56
2019-01-29T05:51:27.645Z,73.55
2019-01-29T05:53:58.706Z,73.58
2019-01-29T05:56:29.791Z,73.08
2019-01-29T05:59:00.885Z,72.92
2019-01-29T06:01:32.097Z,73.19
2019-01-29T06:04:03.243Z,73.23
2019-01-29T06:06:34.255Z,72.63
2019-01-29T06:09:08.608Z,72.08
2019-01-29T06:11:39.729Z,72.53
2019-01-29T06:14:10.947Z,72.44
2019-01-29T06:16:42.109Z,72.53
2019-01-29T06:19:13.390Z,73.17
2019-01-29T06:21:44.732Z,73.16
2019-01-29T06:24:24.858Z,73.04
2019-01-29T06:26:48.754Z,72.94
2019-01-29T06:29:20.010Z,73.45
2019-01-29T06:31:51.246Z,73.34
2019-01-29T06:34:22.446Z,72.97
2019-01-29T06:36:54.749Z,73.03
2019-01-29T06:39:25.842Z,72.72
2019-01-29T06:41:57.262Z,72.94
2019-01-29T06:44:28.340Z,72.98
2019-01-29T06:46:59.446Z,73.27
2019-01-29T06:49:30.524Z,73.06
2019-01-29T06:52:01.761Z,72.91
2019-01-29T06:54:34.293Z,72.68
2019-01-29T06:57:05.758Z,72.78
2019-01-29T06:59:36.959Z,72.50
2019-01-29T07:02:08.396Z,72.83
2019-01-29T07:04:39.629Z,72.21
2019-01-29T07:07:10.808Z,72.39
2019-01-29T07:09:42.046Z,72.01
2019-01-29T07:12:13.131Z,71.90
2019-01-29T07:14:44.305Z,71.42
2019-01-29T07:17:28.951Z,71.29
2019-01-29T07:20:02.790Z,71.83
2019-01-29T07:22:34.013Z,72.39
2019-01-29T07:25:07.179Z,71.65
2019-01-29T07:27:38.315Z,71.76
2019-01-29T07:30:12.512Z,71.60
2019-01-29T07:32:43.592Z,70.94
2019-01-29T07:35:14.821Z,71.45
2019-01-29T07:37:45.888Z,71.62
2019-01-29T07:40:17.059Z,72.02
2019-01-29T07:42:48.230Z,71.20
2019-01-29T07:45:19.491Z,71.17
2019-01-29T07:47:50.641Z,70.86
2019-01-29T07:50:21.833Z,71.35
2019-01-29T07:52:53.097Z,71.65
2019-01-29T07:55:24.326Z,71.06
2019-01-29T07:57:55.420Z,70.89
2019-01-29T08:00:26.606Z,70.97
2019-01-29T08:02:57.790Z,70.84
2019-01-29T08:05:28.940Z,70.59
2019-01-29T08:07:59.984Z,70.53
2019-01-29T08:10:31.051Z,69.88
2019-01-29T08:13:02.079Z,70.44
2019-01-29T08:15:33.226Z,70.02
2019-01-29T08:18:04.556Z,69.49
2019-01-29T08:20:35.764Z,69.42
2019-01-29T08:23:07.115Z,69.35
2019-01-29T08:25:38.284Z,68.68
2019-01-29T08:28:09.441Z,69.14
2019-01-29T08:30:40.675Z,68.70
2019-01-29T08:33:11.878Z,68.46
2019-01-29T08:35:43.125Z,68.29
2019-01-29T08:38:14.195Z,68.96
2019-01-29T08:40:45.220Z,68.80
2019-01-29T08:43:16.309Z,68.88
2019-01-29T08:45:47.523Z,68.44
2019-01-29T08:48:18.773Z,68.38
2019-01-29T08:50:49.930Z,68.36
2019-01-29T08:53:21.068Z,68.55
2019-01-29T08:55:52.279Z,67.96
2019-01-29T08:58:27.143Z,68.37
2019-01-29T09:00:56.159Z,68.88
2019-01-29T09:03:27.325Z,67.95
2019-01-29T09:05:58.489Z,67.21
2019-01-29T09:08:29.548Z,66.88
2019-01-29T09:11:00.778Z,67.53
2019-01-29T09:13:31.932Z,67.82
2019-01-29T09:16:03.187Z,67.43
2019-01-29T09:18:34.333Z,66.13
2019-01-29T09:21:05.737Z,68.46
2019-01-29T09:23:37.018Z,70.77
2019-01-29T09:26:08.252Z,70.80
2019-01-29T09:28:39.391Z,70.64
2019-01-29T09:31:10.530Z,69.40
2019-01-29T09:33:41.592Z,68.39
2019-01-29T09:36:12.853Z,67.86
2019-01-29T09:38:44.021Z,67.19
2019-01-29T09:41:15.116Z,67.25
2019-01-29T09:43:46.338Z,67.44
2019-01-29T09:46:17.507Z,67.96
2019-01-29T09:48:48.746Z,67.81
2019-01-29T09:51:19.865Z,69.74
2019-01-29T09:53:50.869Z,69.73
2019-01-29T09:56:21.853Z,69.54
2019-01-29T09:58:52.926Z,69.65
2019-01-29T10:01:24.004Z,69.33
2019-01-29T10:03:54.968Z,69.26
2019-01-29T10:06:26.110Z,68.24
2019-01-29T10:08:57.160Z,67.80
2019-01-29T10:11:28.632Z,67.03
2019-01-29T10:13:59.830Z,66.85
2019-01-29T10:16:31.039Z,66.82
2019-01-29T10:19:02.111Z,66.38
2019-01-29T10:21:33.249Z,65.49
2019-01-29T10:24:04.749Z,64.62
2019-01-29T10:26:35.917Z,63.81
2019-01-29T10:29:07.015Z,63.06
2019-01-29T10:31:38.232Z,62.04
2019-01-29T10:34:09.309Z,63.35
2019-01-29T10:36:40.475Z,62.50
2019-01-29T10:39:11.532Z,61.50
2019-01-29T10:41:42.686Z,62.24
2019-01-29T10:44:13.810Z,62.31
2019-01-29T10:46:44.966Z,61.87
2019-01-29T10:49:16.013Z,61.20
2019-01-29T10:51:47.757Z,60.13
2019-01-29T10:54:18.958Z,58.11
2019-01-29T10:56:50.100Z,56.74
2019-01-29T10:59:21.212Z,55.34
2019-01-29T11:01:52.368Z,54.86
2019-01-29T11:04:23.413Z,56.38
2019-01-29T11:06:54.717Z,55.73
2019-01-29T11:09:25.857Z,55.02
2019-01-29T11:11:56.965Z,53.05
2019-01-29T11:14:28.792Z,54.48
2019-01-29T11:17:00.054Z,54.04
2019-01-29T11:19:31.204Z,53.75
2019-01-29T11:22:02.330Z,55.46
2019-01-29T11:24:33.473Z,54.20
2019-01-29T11:27:05.007Z,52.96
2019-01-29T11:29:36.145Z,51.31
2019-01-29T11:32:07.267Z,51.10
2019-01-29T11:34:38.246Z,50.35
2019-01-29T11:37:09.326Z,50.16
2019-01-29T11:39:40.510Z,48.73
2019-01-29T11:42:11.653Z,48.82
2019-01-29T11:44:42.789Z,48.27
2019-01-29T11:47:13.947Z,43.58
2019-01-29T11:49:45.086Z,40.24
2019-01-29T11:52:16.250Z,38.74
2019-01-29T11:54:47.307Z,38.58
2019-01-29T11:57:18.695Z,30.62
2019-01-29T11:59:49.894Z,29.08
2019-01-29T12:02:28.329Z,28.55
2019-01-29T12:04:53.877Z,25.64
2019-01-29T12:07:25.085Z,21.73
2019-01-29T12:09:56.678Z,19.89
2019-01-29T12:12:27.968Z,18.72
2019-01-29T12:14:59.025Z,15.32
2019-01-29T12:17:30.188Z,16.18
2019-01-29T12:20:01.190Z,20.26
2019-01-29T12:22:32.356Z,24.34
2019-01-29T12:25:03.867Z,27.02
2019-01-29T12:27:35.068Z,32.19
2019-01-29T12:30:10.465Z,33.13
2019-01-29T12:32:41.553Z,34.70
2019-01-29T12:35:12.700Z,37.00
2019-01-29T12:37:43.876Z,39.76
2019-01-29T12:40:15.192Z,38.90
2019-01-29T12:42:46.415Z,39.90
2019-01-29T12:45:18.457Z,40.50
2019-01-29T12:47:49.861Z,40.04
2019-01-29T12:50:22.655Z,41.99
2019-01-29T12:53:19.173Z,43.29
2019-01-29T12:55:50.330Z,45.37
2019-01-29T12:58:21.412Z,45.73
2019-01-29T13:00:56.831Z,45.19
2019-01-29T13:03:28.016Z,45.88
2019-01-29T13:05:59.190Z,47.00
2019-01-29T13:08:30.330Z,45.46
2019-01-29T13:11:01.561Z,44.02
2019-01-29T13:13:32.696Z,41.57
2019-01-29T13:16:03.822Z,38.93
2019-01-29T13:18:34.910Z,36.01
2019-01-29T13:21:06.062Z,34.53
2019-01-29T13:23:37.270Z,36.44
2019-01-29T13:26:08.439Z,37.40
2019-01-29T13:28:39.634Z,38.93
2019-01-29T13:31:10.707Z,39.91
2019-01-29T13:33:41.883Z,39.76
2019-01-29T13:36:13.008Z,39.26
2019-01-29T13:38:44.109Z,39.52
2019-01-29T13:41:15.234Z,40.60
2019-01-29T13:43:46.372Z,41.67
2019-01-29T13:46:17.601Z,40.19
2019-01-29T13:48:48.747Z,39.95
2019-01-29T13:51:19.889Z,41.42
2019-01-29T13:53:51.032Z,40.30
2019-01-29T13:56:22.200Z,40.22
2019-01-29T13:58:53.270Z,39.58
2019-01-29T14:01:24.325Z,39.87
2019-01-29T14:03:55.457Z,40.20
2019-01-29T14:06:26.524Z,39.70
2019-01-29T14:08:57.772Z,37.08
2019-01-29T14:11:28.900Z,29.60
2019-01-29T14:14:00.943Z,24.63
2019-01-29T14:16:32.123Z,25.02
2019-01-29T14:19:03.301Z,28.17
2019-01-29T14:21:34.455Z,30.14
2019-01-29T14:24:05.787Z,31.58
2019-01-29T14:26:36.894Z,31.88
2019-01-29T14:29:07.967Z,32.71
2019-01-29T14:31:39.103Z,33.25
2019-01-29T14:34:10.359Z,34.81
2019-01-29T14:36:41.489Z,35.91
2019-01-29T14:39:22.689Z,39.28
2019-01-29T14:41:53.671Z,43.19
2019-01-29T14:44:34.537Z,46.11
2019-01-29T14:47:05.679Z,48.36
2019-01-29T14:49:36.751Z,50.51
2019-01-29T14:54:50.138Z,51.01
2019-01-29T14:57:21.124Z,51.69
2019-01-29T14:59:52.230Z,53.69
2019-01-29T15:02:23.359Z,52.94
2019-01-29T15:04:54.530Z,53.19
2019-01-29T15:07:30.488Z,53.15
2019-01-29T15:09:58.468Z,53.05
2019-01-29T15:12:29.524Z,52.83
2019-01-29T15:15:01.726Z,52.14
2019-01-29T15:17:38.412Z,48.45
2019-01-29T15:20:10.959Z,43.96
2019-01-29T15:22:43.448Z,42.75
2019-01-29T15:25:14.678Z,40.26
2019-01-29T15:27:45.908Z,41.32
2019-01-29T15:30:20.375Z,42.90
2019-01-29T15:32:51.495Z,45.63
2019-01-29T15:35:22.787Z,46.47
2019-01-29T15:37:54.709Z,47.69
2019-01-29T15:40:25.969Z,48.75
2019-01-29T15:42:57.293Z,51.51
2019-01-29T15:45:28.480Z,52.50
2019-01-29T15:47:59.704Z,54.42
2019-01-29T15:50:31.296Z,55.03
2019-01-29T15:53:02.888Z,55.55
2019-01-29T15:55:34.063Z,55.64
2019-01-29T15:58:07.012Z,56.90
2019-01-29T16:00:38.737Z,57.99
2019-01-29T16:03:09.871Z,58.47
2019-01-29T16:05:41.257Z,58.70
2019-01-29T16:08:12.767Z,59.45
2019-01-29T16:10:44.201Z,59.95
2019-01-29T16:13:15.333Z,60.88
2019-01-29T16:15:46.530Z,60.92
2019-01-29T16:18:17.690Z,61.16
2019-01-29T16:20:48.892Z,61.19
2019-01-29T16:23:19.956Z,61.36
2019-01-29T16:25:51.091Z,61.79
2019-01-29T16:28:22.268Z,62.83
2019-01-29T16:30:53.445Z,62.61
2019-01-29T16:33:24.593Z,62.31
2019-01-29T16:35:55.663Z,63.19
2019-01-29T16:38:26.722Z,62.98
2019-01-29T16:41:00.491Z,62.27
2019-01-29T16:43:30.820Z,62.34
2019-01-29T16:46:01.935Z,62.97
2019-01-29T16:48:34.240Z,63.29
2019-01-29T16:51:05.397Z,63.84
2019-01-29T16:53:37.491Z,65.05
2019-01-29T16:56:10.542Z,64.20
2019-01-29T16:58:41.660Z,64.38
2019-01-29T17:01:31.313Z,64.61
2019-01-29T17:04:02.786Z,64.10
2019-01-29T17:06:33.798Z,64.06
2019-01-29T17:09:09.402Z,64.61
2019-01-29T17:11:40.492Z,64.88
2019-01-29T17:14:11.570Z,65.27
2019-01-29T17:16:43.747Z,64.77
2019-01-29T17:19:14.808Z,65.34
2019-01-29T17:21:45.947Z,65.77
2019-01-29T17:24:17.029Z,66.54
2019-01-29T17:26:48.108Z,66.13
2019-01-29T17:29:20.455Z,66.07
2019-01-29T17:31:51.541Z,66.35
2019-01-29T17:34:22.691Z,66.59
2019-01-29T17:36:53.961Z,66.66
2019-01-29T17:39:25.092Z,66.91
2019-01-29T17:41:56.443Z,67.54
2019-01-29T17:44:27.615Z,67.45
2019-01-29T17:46:58.724Z,67.39
2019-01-29T17:49:29.782Z,67.14
2019-01-29T17:52:00.958Z,66.68
2019-01-29T17:54:32.009Z,67.34
2019-01-29T17:57:03.109Z,68.07
2019-01-29T17:59:34.103Z,67.41
2019-01-29T18:02:05.980Z,68.09
2019-01-29T18:04:37.042Z,67.58
2019-01-29T18:07:08.187Z,67.63
2019-01-29T18:09:39.326Z,68.04
2019-01-29T18:12:10.794Z,68.68
2019-01-29T18:14:42.056Z,68.62
2019-01-29T18:17:13.180Z,68.69
2019-01-29T18:19:44.355Z,69.17
2019-01-29T18:22:15.453Z,69.67
2019-01-29T18:24:46.446Z,68.78
2019-01-29T18:27:17.850Z,68.42
2019-01-29T18:29:48.966Z,68.73
2019-01-29T18:32:20.164Z,68.63
2019-01-29T18:34:51.158Z,69.22
2019-01-29T18:37:22.247Z,67.62
2019-01-29T18:39:53.332Z,67.45
2019-01-29T18:42:25.499Z,68.07
2019-01-29T18:44:56.579Z,67.79
2019-01-29T18:47:27.758Z,67.72
2019-01-29T18:49:58.822Z,67.70
2019-01-29T18:52:29.912Z,68.43
2019-01-29T18:55:00.984Z,68.51
2019-01-29T18:57:32.158Z,68.19
2019-01-29T19:00:03.251Z,68.02
2019-01-29T19:02:35.339Z,68.42
2019-01-29T19:05:07.589Z,68.64
2019-01-29T19:07:38.828Z,68.83
2019-01-29T19:10:11.896Z,68.73
2019-01-29T19:12:43.080Z,69.25
2019-01-29T19:15:17.736Z,69.28
2019-01-29T19:17:48.989Z,69.15
2019-01-29T19:20:22.013Z,68.73
2019-01-29T19:22:53.169Z,69.20
2019-01-29T19:25:24.332Z,69.18
2019-01-29T19:27:55.566Z,68.78
2019-01-29T19:30:29.132Z,69.45
2019-01-29T19:33:00.247Z,69.33
2019-01-29T19:35:31.325Z,69.08
2019-01-29T19:38:02.424Z,69.59
2019-01-29T19:40:33.570Z,69.42
2019-01-29T19:43:04.910Z,68.91
2019-01-29T19:45:36.218Z,68.36
2019-01-29T19:48:08.395Z,68.87
2019-01-29T19:50:39.629Z,68.99
2019-01-29T19:53:10.724Z,69.34
2019-01-29T19:55:42.349Z,70.29
2019-01-29T19:58:13.566Z,68.69
2019-01-29T20:00:44.774Z,68.29
2019-01-29T20:03:16.030Z,69.46
2019-01-29T20:05:47.162Z,68.83
2019-01-29T20:08:18.329Z,68.96
2019-01-29T20:10:49.500Z,69.00
2019-01-29T20:13:20.675Z,69.16
2019-01-29T20:15:51.842Z,69.55
2019-01-29T20:18:24.068Z,69.63
2019-01-29T20:20:55.454Z,69.47
2019-01-29T20:23:26.556Z,69.92
2019-01-29T20:25:57.612Z,70.01
2019-01-29T20:28:28.712Z,69.77
2019-01-29T20:30:59.964Z,70.05
2019-01-29T20:33:31.391Z,70.71
2019-01-29T20:36:02.595Z,70.52
2019-01-29T20:38:35.260Z,70.87
2019-01-29T20:41:06.640Z,70.74
2019-01-29T20:43:37.900Z,70.88
2019-01-29T20:46:09.039Z,70.62
2019-01-29T20:48:40.199Z,70.71
2019-01-29T20:51:11.276Z,71.30
2019-01-29T20:53:42.489Z,69.92
2019-01-29T20:56:13.649Z,69.85
2019-01-29T20:58:52.468Z,70.09
2019-01-29T21:01:17.583Z,70.18
2019-01-29T21:03:48.739Z,69.06
2019-01-29T21:06:19.879Z,69.43
2019-01-29T21:08:51.001Z,69.20
2019-01-29T21:11:22.201Z,69.16
2019-01-29T21:13:53.286Z,69.35
2019-01-29T21:16:24.437Z,70.29
2019-01-29T21:18:55.453Z,70.23
2019-01-29T21:21:26.598Z,70.02
2019-01-29T21:23:57.805Z,69.94
2019-01-29T21:26:28.884Z,70.63
2019-01-29T21:29:03.228Z,70.33
2019-01-29T21:31:32.764Z,69.94
2019-01-29T21:34:03.909Z,70.95
2019-01-29T21:36:34.901Z,70.08
2019-01-29T21:39:09.396Z,70.60
2019-01-29T21:41:40.545Z,70.27
2019-01-29T21:44:11.722Z,69.99
2019-01-29T21:46:42.740Z,70.83
2019-01-29T21:49:14.085Z,70.23
2019-01-29T21:51:45.376Z,70.53
2019-01-29T21:54:16.511Z,71.04
2019-01-29T21:56:49.815Z,69.93
2019-01-29T21:59:22.185Z,69.13
2019-01-29T22:01:53.266Z,69.00
2019-01-29T22:04:24.362Z,69.68
2019-01-29T22:06:55.625Z,69.44
2019-01-29T22:09:27.701Z,70.13
2019-01-29T22:11:58.930Z,70.19
2019-01-29T22:14:30.086Z,70.05
2019-01-29T22:17:01.304Z,70.47
2019-01-29T22:19:32.560Z,70.38
2019-01-29T22:22:03.694Z,70.41
2019-01-29T22:24:34.847Z,71.57
2019-01-29T22:27:05.849Z,70.45
2019-01-29T22:29:36.880Z,70.36
2019-01-29T22:32:08.430Z,69.61
2019-01-29T22:34:41.234Z,70.11
2019-01-29T22:37:12.404Z,69.91
2019-01-29T22:39:43.621Z,70.00
2019-01-29T22:42:14.868Z,69.09
2019-01-29T22:44:46.003Z,70.25
2019-01-29T22:47:17.172Z,70.33
2019-01-29T22:49:48.745Z,70.25
2019-01-29T22:52:19.915Z,69.39
2019-01-29T22:54:51.372Z,70.38
2019-01-29T22:57:22.621Z,69.70
2019-01-29T22:59:53.926Z,70.34
2019-01-29T23:02:25.337Z,70.32
2019-01-29T23:04:56.595Z,70.78
2019-01-29T23:07:34.096Z,70.41
2019-01-29T23:10:10.454Z,70.47
2019-01-29T23:12:41.628Z,70.03
2019-01-29T23:15:14.848Z,70.41
2019-01-29T23:17:46.019Z,70.51
2019-01-29T23:20:17.627Z,70.98
2019-01-29T23:22:49.701Z,70.65
2019-01-29T23:25:21.112Z,70.73
2019-01-29T23:27:52.337Z,70.48
2019-01-29T23:30:23.654Z,70.98
2019-01-29T23:32:54.667Z,70.40
2019-01-29T23:35:25.817Z,70.21
2019-01-29T23:37:56.966Z,70.59
2019-01-29T23:40:28.114Z,70.89
2019-01-29T23:42:59.092Z,70.72
2019-01-29T23:45:30.346Z,70.65
2019-01-29T23:48:01.342Z,70.77
2019-01-29T23:50:32.958Z,70.43
2019-01-29T23:53:04.213Z,71.05
2019-01-29T23:55:35.308Z,71.60
2019-01-29T23:58:06.552Z,70.73
